createdAt,value
2022-10-03T00:00:25.408Z,10.20
2022-10-03T00:03:10.097Z,10.20
2022-10-03T00:05:55.306Z,10.10
2022-10-03T00:08:43.646Z,10.10
2022-10-03T00:11:31.499Z,10.00
2022-10-03T00:14:25.872Z,9.90
2022-10-03T00:16:52.567Z,9.90
2022-10-03T00:19:50.145Z,9.90
2022-10-03T00:22:28.782Z,9.90
2022-10-03T00:25:06.305Z,9.90
2022-10-03T00:27:56.461Z,9.80
2022-10-03T00:30:24.567Z,9.80
2022-10-03T00:33:09.733Z,9.80
2022-10-03T00:35:49.152Z,9.80
2022-10-03T00:38:50.137Z,9.70
2022-10-03T00:41:45.729Z,9.70
2022-10-03T00:44:16.641Z,9.70
2022-10-03T00:46:43.450Z,9.70
2022-10-03T00:49:31.378Z,9.70
2022-10-03T00:52:34.974Z,9.70
2022-10-03T00:55:27.966Z,9.80
2022-10-03T00:58:20.780Z,9.80
2022-10-03T01:00:51.394Z,9.80
2022-10-03T01:03:29.823Z,9.70
2022-10-03T01:06:17.704Z,9.70
2022-10-03T01:08:56.126Z,9.70
2022-10-03T01:11:37.227Z,9.60
2022-10-03T01:14:18.923Z,9.60
2022-10-03T01:17:03.775Z,9.50
2022-10-03T01:20:01.329Z,9.50
2022-10-03T01:23:06.657Z,9.40
2022-10-03T01:25:38.604Z,9.30
2022-10-03T01:28:32.346Z,9.20
2022-10-03T01:31:06.109Z,9.10
2022-10-03T01:33:48.171Z,9.10
2022-10-03T01:36:43.161Z,9.10
2022-10-03T01:39:53.034Z,9.10
2022-10-03T01:42:31.410Z,9.10
2022-10-03T01:45:29.847Z,9.10
2022-10-03T01:48:08.228Z,9.10
2022-10-03T01:50:55.515Z,9.00
2022-10-03T01:53:44.316Z,9.00
2022-10-03T01:56:35.753Z,9.00
2022-10-03T01:59:13.871Z,9.10
2022-10-03T02:01:52.272Z,9.10
2022-10-03T02:04:34.118Z,9.10
2022-10-03T02:07:58.309Z,9.10
2022-10-03T02:10:52.570Z,9.10
2022-10-03T02:13:40.999Z,9.10
2022-10-03T02:16:16.513Z,9.00
2022-10-03T02:18:55.300Z,8.90
2022-10-03T02:21:27.821Z,8.80
2022-10-03T02:24:16.228Z,8.80
2022-10-03T02:27:01.805Z,8.70
2022-10-03T02:30:08.806Z,8.70
2022-10-03T02:33:13.184Z,8.60
2022-10-03T02:35:45.711Z,8.50
2022-10-03T02:38:30.721Z,8.50
2022-10-03T02:41:20.240Z,8.40
2022-10-03T02:44:14.206Z,8.40
2022-10-03T02:47:13.577Z,8.50
2022-10-03T02:49:52.210Z,8.50
2022-10-03T02:52:29.968Z,8.50
2022-10-03T02:55:27.998Z,8.40
2022-10-03T02:58:28.707Z,8.40
2022-10-03T03:01:39.699Z,8.40
2022-10-03T03:04:37.331Z,8.40
2022-10-03T03:07:27.205Z,8.40
2022-10-03T03:10:11.399Z,8.40
2022-10-03T03:13:07.072Z,8.40
2022-10-03T03:15:56.890Z,8.40
2022-10-03T03:18:46.681Z,8.30
2022-10-03T03:21:25.620Z,8.30
2022-10-03T03:23:59.758Z,8.30
2022-10-03T03:27:07.869Z,8.30
2022-10-03T03:29:37.587Z,8.30
2022-10-03T03:32:27.113Z,8.30
2022-10-03T03:35:31.314Z,8.30
2022-10-03T03:38:08.029Z,8.30
2022-10-03T03:41:10.091Z,8.30
2022-10-03T03:44:05.697Z,8.40
2022-10-03T03:46:51.718Z,8.40
2022-10-03T03:49:59.158Z,8.40
2022-10-03T03:53:03.657Z,8.50
2022-10-03T03:56:07.800Z,8.50
2022-10-03T03:59:22.520Z,8.50
2022-10-03T04:02:28.008Z,8.40
2022-10-03T04:05:13.427Z,8.40
2022-10-03T04:08:11.063Z,8.40
2022-10-03T04:10:53.399Z,8.40
2022-10-03T04:13:41.338Z,8.50
2022-10-03T04:16:40.079Z,8.50
2022-10-03T04:19:28.109Z,8.60
2022-10-03T04:22:12.860Z,8.60
2022-10-03T04:25:18.148Z,8.60
2022-10-03T04:27:59.861Z,8.70
2022-10-03T04:30:55.934Z,8.70
2022-10-03T04:33:22.526Z,8.70
2022-10-03T04:36:13.583Z,8.80
2022-10-03T04:38:50.223Z,8.80
2022-10-03T04:41:43.022Z,8.80
2022-10-03T04:44:28.203Z,8.80
2022-10-03T04:47:01.082Z,8.90
2022-10-03T04:49:39.059Z,8.90
2022-10-03T04:52:40.298Z,8.90
2022-10-03T04:55:22.966Z,9.00
2022-10-03T04:58:26.258Z,9.00
2022-10-03T05:01:17.756Z,9.00
2022-10-03T05:04:04.855Z,9.00
2022-10-03T05:06:43.475Z,9.00
2022-10-03T05:09:44.713Z,9.00
2022-10-03T05:12:35.405Z,9.00
2022-10-03T05:15:17.610Z,8.90
2022-10-03T05:17:53.202Z,9.00
2022-10-03T05:20:22.765Z,9.00
2022-10-03T05:23:02.189Z,9.00
2022-10-03T05:25:53.520Z,9.00
2022-10-03T05:28:40.427Z,9.10
2022-10-03T05:31:34.780Z,9.20
2022-10-03T05:34:22.564Z,9.30
2022-10-03T05:37:02.646Z,9.40
2022-10-03T05:39:36.546Z,9.50
2022-10-03T05:42:37.789Z,9.60
2022-10-03T05:45:24.441Z,9.60
2022-10-03T05:48:13.453Z,9.70
2022-10-03T05:51:02.584Z,9.70
2022-10-03T05:53:50.973Z,9.80
2022-10-03T05:56:48.399Z,9.80
2022-10-03T05:59:43.924Z,9.90
2022-10-03T06:02:58.183Z,10.10
2022-10-03T06:05:31.841Z,10.20
2022-10-03T06:08:01.565Z,10.30
2022-10-03T06:11:01.546Z,10.40
2022-10-03T06:13:53.808Z,10.50
2022-10-03T06:16:43.734Z,10.70
2022-10-03T06:19:43.920Z,10.80
2022-10-03T06:22:34.102Z,11.00
2022-10-03T06:25:36.278Z,11.10
2022-10-03T06:28:40.301Z,11.30
2022-10-03T06:31:44.291Z,11.40
2022-10-03T06:34:42.247Z,11.60
2022-10-03T06:37:42.162Z,11.70
2022-10-03T06:40:59.175Z,11.80
2022-10-03T06:43:40.401Z,12.00
2022-10-03T06:46:26.168Z,12.10
2022-10-03T06:49:47.046Z,12.20
2022-10-03T06:52:19.567Z,12.30
2022-10-03T06:54:58.934Z,12.40
2022-10-03T06:57:52.981Z,12.50
2022-10-03T07:00:20.864Z,12.60
2022-10-03T07:03:25.233Z,12.70
2022-10-03T07:06:28.690Z,12.80
2022-10-03T07:09:13.718Z,12.90
2022-10-03T07:12:08.622Z,13.00
2022-10-03T07:14:48.071Z,13.10
2022-10-03T07:17:35.084Z,13.30
2022-10-03T07:20:10.839Z,13.40
2022-10-03T07:23:15.815Z,13.50
2022-10-03T07:26:05.143Z,13.70
2022-10-03T07:29:09.329Z,13.80
2022-10-03T07:32:14.030Z,14.00
2022-10-03T07:35:08.952Z,14.10
2022-10-03T07:38:25.147Z,14.30
2022-10-03T07:40:55.413Z,14.50
2022-10-03T07:43:34.203Z,14.70
2022-10-03T07:46:35.239Z,14.90
2022-10-03T07:49:18.285Z,15.10
2022-10-03T07:52:03.482Z,15.30
2022-10-03T07:54:49.092Z,15.50
2022-10-03T07:57:37.214Z,15.80
2022-10-03T08:00:14.695Z,16.00
2022-10-03T08:03:33.305Z,16.10
2022-10-03T08:06:37.967Z,16.30
2022-10-03T08:09:38.049Z,16.40
2022-10-03T08:12:34.185Z,16.60
2022-10-03T08:15:30.764Z,16.80
2022-10-03T08:18:18.854Z,16.90
2022-10-03T08:21:23.677Z,17.00
2022-10-03T08:24:12.780Z,17.40
2022-10-03T08:27:10.196Z,18.50
2022-10-03T08:29:39.586Z,19.10
2022-10-03T08:32:28.291Z,19.50
2022-10-03T08:34:55.267Z,20.10
2022-10-03T08:38:07.219Z,20.80
2022-10-03T08:41:06.447Z,21.60
2022-10-03T08:43:58.006Z,22.60
2022-10-03T08:46:39.692Z,24.50
2022-10-03T08:49:18.620Z,25.50
2022-10-03T08:52:03.152Z,27.50
2022-10-03T08:54:37.614Z,29.90
2022-10-03T08:57:27.533Z,32.00
2022-10-03T09:00:02.701Z,33.70
2022-10-03T09:06:11.607Z,35.80
2022-10-03T09:09:16.729Z,36.90
2022-10-03T09:11:58.341Z,38.30
2022-10-03T09:14:43.667Z,39.10
2022-10-03T09:17:28.821Z,39.90
2022-10-03T09:20:11.273Z,40.50
2022-10-03T09:22:51.660Z,41.10
2022-10-03T09:25:38.530Z,41.30
2022-10-03T09:28:25.693Z,41.60
2022-10-03T09:31:03.833Z,42.00
2022-10-03T09:33:49.160Z,42.10
2022-10-03T09:36:53.607Z,42.30
2022-10-03T09:39:44.715Z,42.40
2022-10-03T09:42:14.433Z,42.70
2022-10-03T09:44:59.583Z,42.90
2022-10-03T09:47:52.788Z,42.80
2022-10-03T09:50:46.959Z,43.00
2022-10-03T09:53:27.979Z,42.90
2022-10-03T09:56:25.497Z,42.60
2022-10-03T09:59:12.080Z,42.50
2022-10-03T10:02:00.332Z,42.50
2022-10-03T10:04:56.597Z,42.80
2022-10-03T10:07:44.430Z,42.80
2022-10-03T10:10:42.296Z,42.80
2022-10-03T10:13:36.231Z,42.60
2022-10-03T10:16:29.158Z,42.50
2022-10-03T10:19:21.990Z,42.30
2022-10-03T10:21:54.514Z,42.30
2022-10-03T10:24:33.421Z,41.80
2022-10-03T10:27:19.298Z,41.70
2022-10-03T10:29:56.287Z,41.40
2022-10-03T10:32:59.681Z,41.50
2022-10-03T10:35:47.263Z,41.50
2022-10-03T10:38:27.179Z,40.80
2022-10-03T10:41:32.762Z,39.70
2022-10-03T10:44:10.958Z,38.00
2022-10-03T10:46:56.369Z,35.70
2022-10-03T10:49:47.676Z,33.90
2022-10-03T10:52:46.470Z,34.90
2022-10-03T10:55:54.659Z,35.80
2022-10-03T10:58:40.121Z,34.60
2022-10-03T11:01:09.913Z,32.60
2022-10-03T11:03:56.916Z,32.90
2022-10-03T11:06:38.944Z,34.30
2022-10-03T11:09:34.310Z,34.70
2022-10-03T11:12:49.333Z,33.50
2022-10-03T11:16:12.967Z,32.00
2022-10-03T11:19:14.798Z,31.30
2022-10-03T11:22:06.167Z,30.90
2022-10-03T11:25:09.350Z,31.30
2022-10-03T11:27:55.329Z,32.40
2022-10-03T11:30:24.902Z,33.30
2022-10-03T11:33:22.491Z,32.60
2022-10-03T11:36:05.821Z,31.30
2022-10-03T11:39:02.618Z,29.70
2022-10-03T11:41:48.613Z,28.50
2022-10-03T11:44:32.863Z,27.50
2022-10-03T11:47:31.555Z,26.90
2022-10-03T11:50:23.011Z,26.40
2022-10-03T11:53:00.707Z,25.70
2022-10-03T11:55:44.514Z,25.30
2022-10-03T11:58:23.105Z,24.80
2022-10-03T12:01:30.887Z,24.30
2022-10-03T12:04:37.073Z,23.70
2022-10-03T12:07:57.555Z,23.10
2022-10-03T12:10:35.916Z,22.60
2022-10-03T12:13:12.986Z,22.10
2022-10-03T12:15:45.734Z,21.80
2022-10-03T12:18:42.747Z,21.40
2022-10-03T12:21:21.758Z,21.10
2022-10-03T12:24:02.763Z,20.90
2022-10-03T12:26:36.044Z,20.70
2022-10-03T12:29:03.823Z,20.50
2022-10-03T12:31:38.725Z,20.50
2022-10-03T12:34:17.911Z,20.30
2022-10-03T12:37:22.391Z,20.40
2022-10-03T12:40:21.725Z,20.10
2022-10-03T12:43:37.048Z,20.00
2022-10-03T12:46:14.463Z,20.00
2022-10-03T12:48:55.518Z,20.00
2022-10-03T12:51:49.288Z,20.00
2022-10-03T12:54:20.116Z,19.90
2022-10-03T12:56:57.677Z,19.90
2022-10-03T12:59:33.249Z,19.90
2022-10-03T13:02:22.315Z,19.90
2022-10-03T13:05:37.618Z,20.10
2022-10-03T13:08:26.282Z,20.30
2022-10-03T13:11:35.962Z,20.60
2022-10-03T13:14:27.479Z,20.90
2022-10-03T13:17:00.324Z,21.10
2022-10-03T13:19:34.378Z,21.30
2022-10-03T13:22:17.615Z,21.50
2022-10-03T13:25:00.993Z,21.60
2022-10-03T13:27:35.909Z,21.60
2022-10-03T13:30:07.137Z,21.60
2022-10-03T13:32:38.556Z,21.60
2022-10-03T13:35:38.618Z,21.60
2022-10-03T13:38:16.826Z,21.50
2022-10-03T13:41:20.970Z,21.30
2022-10-03T13:44:23.643Z,21.10
2022-10-03T13:46:54.363Z,20.90
2022-10-03T13:49:35.875Z,20.60
2022-10-03T13:52:10.633Z,20.50
2022-10-03T13:55:00.819Z,20.40
2022-10-03T13:57:39.187Z,20.20
2022-10-03T14:00:12.568Z,20.20
2022-10-03T14:03:03.111Z,20.10
2022-10-03T14:06:01.787Z,20.00
2022-10-03T14:08:55.507Z,19.90
2022-10-03T14:12:02.447Z,19.70
2022-10-03T14:15:04.157Z,19.70
2022-10-03T14:18:00.919Z,19.60
2022-10-03T14:20:53.443Z,19.50
2022-10-03T14:23:37.581Z,19.40
2022-10-03T14:26:21.259Z,19.30
2022-10-03T14:29:07.073Z,19.30
2022-10-03T14:31:57.016Z,19.30
2022-10-03T14:34:40.464Z,19.30
2022-10-03T14:37:40.649Z,19.20
2022-10-03T14:40:28.188Z,19.30
2022-10-03T14:43:01.505Z,19.30
2022-10-03T14:45:32.970Z,19.20
2022-10-03T14:48:16.360Z,19.10
2022-10-03T14:50:45.182Z,19.10
2022-10-03T14:53:29.712Z,19.10
2022-10-03T14:56:07.647Z,19.10
2022-10-03T14:58:50.264Z,19.10
2022-10-03T15:01:21.510Z,19.00
2022-10-03T15:04:12.666Z,19.00
2022-10-03T15:06:44.893Z,19.10
2022-10-03T15:09:33.341Z,19.20
2022-10-03T15:12:07.266Z,19.30
2022-10-03T15:14:41.763Z,19.40
2022-10-03T15:17:24.278Z,19.40
2022-10-03T15:19:57.390Z,19.40
2022-10-03T15:22:41.252Z,19.60
2022-10-03T15:25:35.757Z,19.70
2022-10-03T15:28:07.356Z,19.80
2022-10-03T15:30:36.873Z,19.90
2022-10-03T15:33:29.018Z,19.90
2022-10-03T15:36:08.944Z,19.90
2022-10-03T15:38:39.626Z,19.80
2022-10-03T15:41:07.118Z,19.90
2022-10-03T15:43:50.671Z,19.80
2022-10-03T15:46:35.103Z,19.80
2022-10-03T15:49:19.673Z,19.80
2022-10-03T15:51:48.460Z,19.70
2022-10-03T15:54:22.243Z,19.60
2022-10-03T15:56:55.207Z,19.60
2022-10-03T15:59:37.051Z,19.50
2022-10-03T16:02:19.105Z,19.50
2022-10-03T16:04:47.823Z,19.40
2022-10-03T16:07:26.726Z,19.30
2022-10-03T16:10:25.032Z,19.20
2022-10-03T16:13:20.628Z,19.00
2022-10-03T16:16:21.001Z,18.90
2022-10-03T16:18:56.689Z,18.80
2022-10-03T16:22:06.150Z,18.60
2022-10-03T16:24:50.602Z,18.50
2022-10-03T16:27:26.242Z,18.40
2022-10-03T16:30:10.994Z,18.30
2022-10-03T16:32:43.916Z,18.20
2022-10-03T16:35:39.463Z,18.10
2022-10-03T16:38:21.703Z,17.90
2022-10-03T16:41:01.847Z,17.80
2022-10-03T16:43:31.830Z,17.60
2022-10-03T16:46:01.703Z,17.50
2022-10-03T16:48:50.521Z,17.40
2022-10-03T16:51:23.427Z,17.20
2022-10-03T16:53:53.517Z,17.00
2022-10-03T16:56:26.955Z,16.90
2022-10-03T16:58:58.588Z,16.70
2022-10-03T17:01:31.805Z,16.50
2022-10-03T17:04:23.085Z,16.40
2022-10-03T17:06:53.218Z,16.20
2022-10-03T17:09:49.238Z,16.00
2022-10-03T17:12:25.289Z,15.90
2022-10-03T17:14:55.289Z,15.70
2022-10-03T17:17:32.101Z,15.60
2022-10-03T17:20:11.487Z,15.40
2022-10-03T17:22:46.665Z,15.20
2022-10-03T17:25:19.213Z,15.10
2022-10-03T17:27:50.845Z,14.90
2022-10-03T17:31:00.301Z,14.80
2022-10-03T17:33:49.591Z,14.60
2022-10-03T17:36:52.625Z,14.70
2022-10-03T17:39:34.042Z,14.40
2022-10-03T17:42:26.604Z,14.30
2022-10-03T17:45:12.783Z,14.20
2022-10-03T17:47:48.668Z,14.20
2022-10-03T17:50:27.508Z,14.10
2022-10-03T17:52:54.757Z,14.00
2022-10-03T17:55:28.098Z,13.90
2022-10-03T17:57:59.894Z,13.90
2022-10-03T18:00:45.939Z,13.80
2022-10-03T18:03:48.542Z,13.70
2022-10-03T18:06:34.241Z,13.70
2022-10-03T18:09:27.842Z,13.60
2022-10-03T18:12:02.740Z,13.60
2022-10-03T18:14:55.885Z,13.40
2022-10-03T18:17:58.637Z,13.30
2022-10-03T18:20:40.541Z,13.10
2022-10-03T18:23:20.311Z,13.00
2022-10-03T18:26:19.967Z,12.90
2022-10-03T18:29:05.259Z,12.80
2022-10-03T18:31:35.178Z,12.70
2022-10-03T18:34:17.165Z,12.50
2022-10-03T18:36:47.990Z,12.40
2022-10-03T18:39:22.055Z,12.30
2022-10-03T18:41:52.122Z,12.30
2022-10-03T18:44:22.166Z,12.30
2022-10-03T18:46:56.553Z,12.20
2022-10-03T18:49:34.362Z,12.20
2022-10-03T18:52:23.194Z,12.20
2022-10-03T18:55:04.395Z,12.10
2022-10-03T18:57:54.723Z,12.20
2022-10-03T19:00:27.099Z,12.10
2022-10-03T19:03:02.286Z,12.10
2022-10-03T19:05:33.946Z,12.00
2022-10-03T19:08:21.556Z,12.00
2022-10-03T19:11:27.164Z,11.90
2022-10-03T19:14:39.198Z,11.90
2022-10-03T19:17:30.842Z,11.80
2022-10-03T19:20:17.280Z,11.80
2022-10-03T19:23:07.888Z,11.70
2022-10-03T19:25:38.480Z,11.70
2022-10-03T19:28:19.492Z,11.60
2022-10-03T19:30:56.246Z,11.50
2022-10-03T19:33:26.370Z,11.40
2022-10-03T19:35:58.165Z,11.40
2022-10-03T19:38:30.754Z,11.30
2022-10-03T19:41:04.764Z,11.30
2022-10-03T19:43:36.198Z,11.30
2022-10-03T19:46:15.171Z,11.30
2022-10-03T19:49:01.663Z,11.30
2022-10-03T19:51:28.643Z,11.20
2022-10-03T19:53:57.470Z,11.10
2022-10-03T19:56:26.961Z,11.10
2022-10-03T19:59:12.640Z,11.00
2022-10-03T20:01:47.223Z,11.00
2022-10-03T20:04:18.612Z,10.90
2022-10-03T20:06:49.513Z,10.90
2022-10-03T20:09:25.757Z,10.80
2022-10-03T20:12:01.076Z,10.80
2022-10-03T20:14:35.286Z,10.70
2022-10-03T20:17:13.424Z,10.60
2022-10-03T20:19:54.376Z,10.60
2022-10-03T20:22:23.829Z,10.50
2022-10-03T20:24:50.832Z,10.50
2022-10-03T20:27:48.016Z,10.50
2022-10-03T20:30:38.357Z,10.40
2022-10-03T20:33:05.955Z,10.40
2022-10-03T20:35:39.568Z,10.40
2022-10-03T20:38:25.766Z,10.30
2022-10-03T20:41:00.153Z,10.30
2022-10-03T20:43:56.498Z,10.20
2022-10-03T20:46:45.225Z,10.20
2022-10-03T20:49:23.742Z,10.20
2022-10-03T20:51:53.164Z,10.30
2022-10-03T20:54:22.443Z,10.20
2022-10-03T20:57:12.641Z,10.20
2022-10-03T20:59:57.942Z,10.10
2022-10-03T21:02:30.459Z,10.00
2022-10-03T21:05:03.785Z,9.90
2022-10-03T21:07:59.343Z,9.90
2022-10-03T21:10:43.390Z,9.80
2022-10-03T21:13:18.778Z,9.80
2022-10-03T21:15:54.915Z,9.80
2022-10-03T21:18:24.034Z,9.80
2022-10-03T21:21:19.405Z,9.70
2022-10-03T21:24:24.153Z,9.70
2022-10-03T21:27:01.480Z,9.70
2022-10-03T21:29:33.865Z,9.70
2022-10-03T21:32:28.331Z,9.60
2022-10-03T21:35:35.154Z,9.60
2022-10-03T21:38:26.771Z,9.50
2022-10-03T21:41:18.076Z,9.50
2022-10-03T21:44:01.212Z,9.40
2022-10-03T21:46:42.923Z,9.40
2022-10-03T21:49:33.827Z,9.30
2022-10-03T21:52:29.403Z,9.30
2022-10-03T21:55:51.138Z,9.20
2022-10-03T21:59:10.183Z,9.10
2022-10-03T22:01:47.384Z,9.10
2022-10-03T22:04:23.265Z,9.00
2022-10-03T22:07:13.043Z,9.00
2022-10-03T22:09:55.241Z,8.90
2022-10-03T22:12:23.318Z,8.90
2022-10-03T22:14:55.514Z,8.90
2022-10-03T22:17:29.233Z,8.90
2022-10-03T22:20:28.547Z,8.90
2022-10-03T22:23:13.507Z,8.80
2022-10-03T22:25:58.817Z,8.80
2022-10-03T22:28:36.715Z,8.70
2022-10-03T22:31:14.649Z,8.70
2022-10-03T22:34:05.467Z,8.70
2022-10-03T22:36:36.092Z,8.70
2022-10-03T22:39:09.618Z,8.70
2022-10-03T22:41:37.668Z,8.70
2022-10-03T22:44:07.914Z,8.70
2022-10-03T22:46:37.438Z,8.60
2022-10-03T22:49:16.524Z,8.60
2022-10-03T22:51:46.489Z,8.50
2022-10-03T22:54:17.431Z,8.50
2022-10-03T22:56:47.017Z,8.40
2022-10-03T22:59:24.387Z,8.40
2022-10-03T23:01:54.290Z,8.40
2022-10-03T23:04:35.609Z,8.40
2022-10-03T23:07:02.230Z,8.30
2022-10-03T23:09:41.640Z,8.30
2022-10-03T23:12:11.410Z,8.40
2022-10-03T23:14:43.110Z,8.30
2022-10-03T23:17:30.785Z,8.30
2022-10-03T23:20:06.595Z,8.30
2022-10-03T23:22:37.075Z,8.30
2022-10-03T23:25:16.802Z,8.20
2022-10-03T23:27:58.190Z,8.20
2022-10-03T23:30:24.778Z,8.20
2022-10-03T23:32:54.547Z,8.10
2022-10-03T23:35:41.179Z,8.10
2022-10-03T23:38:33.139Z,8.10
2022-10-03T23:41:15.080Z,8.00
2022-10-03T23:43:44.718Z,7.90
2022-10-03T23:46:15.207Z,7.90
2022-10-03T23:48:48.730Z,7.90
2022-10-03T23:51:19.887Z,7.90
2022-10-03T23:53:52.474Z,7.80
2022-10-03T23:56:21.948Z,7.80
2022-10-03T23:58:56.860Z,7.80
